Weather at Lanseria International Airport

Public forecast

Using degrees Celsius for public forecast. Weather courtesy of forecast.io.

Current aviation weather report (METAR) for Lanseria International Airport

Report is more than 6 hours old.

2022/11/14 15:00 (retrieved 2 years ago)

FALA 141500Z 05004KT 340V090 9999 FEW045 24/11 Q1023 NOSIG

Aviation forecast (TAF) for Lanseria International Airport

Forecast is more than 12 hours old.

2023/02/22 18:15 (retrieved 1 year ago)

TAF FALA 221600Z 2218/2318 VRB03KT CAVOK TX26/2313Z TN15/2303Z PROB30 TEMPO 2301/2306 BKN005 FM230700 VRB03KT 9999 BKN020 FM231000 VRB03KT CAVOK